sensor_id;sensor_type;location;lat;lon;timestamp;pressure;altitude;pressure_sealevel;temperature;humidity
35045;BME280;21231;48.394;34.964;2024-03-23T00:54:30;100103.34;;;-1.30;100.00
35045;BME280;21231;48.394;34.964;2024-03-23T00:57:15;100099.81;;;-1.23;100.00
35045;BME280;21231;48.394;34.964;2024-03-23T01:00:00;100100.34;;;-1.35;100.00
35045;BME280;21231;48.394;34.964;2024-03-23T01:02:45;100092.41;;;-1.47;100.00
35045;BME280;21231;48.394;34.964;2024-03-23T01:05:30;100101.47;;;-1.49;100.00
35045;BME280;21231;48.394;34.964;2024-03-23T01:08:15;100105.47;;;-1.51;100.00
35045;BME280;21231;48.394;34.964;2024-03-23T01:11:01;100103.69;;;-1.52;100.00
35045;BME280;21231;48.394;34.964;2024-03-23T01:13:47;100105.31;;;-1.52;100.00
35045;BME280;21231;48.394;34.964;2024-03-23T01:16:32;100107.81;;;-1.61;100.00
35045;BME280;21231;48.394;34.964;2024-03-23T01:19:17;100104.03;;;-1.65;100.00
35045;BME280;21231;48.394;34.964;2024-03-23T01:22:04;100103.63;;;-1.61;100.00
35045;BME280;21231;48.394;34.964;2024-03-23T01:24:50;100106.56;;;-1.65;100.00
35045;BME280;21231;48.394;34.964;2024-03-23T01:27:35;100099.72;;;-1.66;100.00
35045;BME280;21231;48.394;34.964;2024-03-23T01:30:20;100083.03;;;-1.73;100.00
35045;BME280;21231;48.394;34.964;2024-03-23T01:33:05;100086.16;;;-1.75;100.00
35045;BME280;21231;48.394;34.964;2024-03-23T01:35:50;100093.91;;;-1.74;100.00
35045;BME280;21231;48.394;34.964;2024-03-23T01:38:35;100085.09;;;-1.77;100.00
35045;BME280;21231;48.394;34.964;2024-03-23T01:41:24;100053.53;;;-1.90;100.00
35045;BME280;21231;48.394;34.964;2024-03-23T01:44:09;100052.53;;;-1.83;100.00
35045;BME280;21231;48.394;34.964;2024-03-23T01:46:56;100068.38;;;-1.68;100.00
35045;BME280;21231;48.394;34.964;2024-03-23T01:49:41;100066.13;;;-1.65;100.00
35045;BME280;21231;48.394;34.964;2024-03-23T01:52:29;100062.75;;;-1.56;100.00
35045;BME280;21231;48.394;34.964;2024-03-23T01:55:15;100063.47;;;-1.66;100.00
35045;BME280;21231;48.394;34.964;2024-03-23T01:58:00;100061.50;;;-1.69;100.00
35045;BME280;21231;48.394;34.964;2024-03-23T02:00:46;100058.88;;;-1.62;100.00
35045;BME280;21231;48.394;34.964;2024-03-23T02:03:31;100058.13;;;-1.61;100.00
35045;BME280;21231;48.394;34.964;2024-03-23T02:06:16;100049.03;;;-1.67;100.00
35045;BME280;21231;48.394;34.964;2024-03-23T02:09:02;100057.13;;;-1.54;100.00
35045;BME280;21231;48.394;34.964;2024-03-23T02:11:48;100048.25;;;-1.50;100.00
35045;BME280;21231;48.394;34.964;2024-03-23T02:14:33;100036.72;;;-1.64;100.00
35045;BME280;21231;48.394;34.964;2024-03-23T02:17:21;100049.34;;;-1.64;100.00
35045;BME280;21231;48.394;34.964;2024-03-23T02:19:48;100047.59;;;-1.56;100.00
35045;BME280;21231;48.394;34.964;2024-03-23T02:22:37;100050.59;;;-1.52;100.00
35045;BME280;21231;48.394;34.964;2024-03-23T02:25:23;100046.16;;;-1.45;100.00
35045;BME280;21231;48.394;34.964;2024-03-23T02:28:08;100054.41;;;-1.64;100.00
35045;BME280;21231;48.394;34.964;2024-03-23T02:30:53;100059.69;;;-1.79;100.00
35045;BME280;21231;48.394;34.964;2024-03-23T02:33:38;100044.41;;;-1.71;100.00
35045;BME280;21231;48.394;34.964;2024-03-23T02:36:23;100048.03;;;-1.61;100.00
35045;BME280;21231;48.394;34.964;2024-03-23T02:39:08;100049.00;;;-1.76;100.00
35045;BME280;21231;48.394;34.964;2024-03-23T02:41:53;100047.25;;;-1.93;100.00
35045;BME280;21231;48.394;34.964;2024-03-23T02:44:38;100040.00;;;-1.90;100.00
35045;BME280;21231;48.394;34.964;2024-03-23T02:47:23;100022.16;;;-1.92;100.00
35045;BME280;21231;48.394;34.964;2024-03-23T02:50:09;100033.44;;;-1.88;100.00
35045;BME280;21231;48.394;34.964;2024-03-23T02:52:54;100031.66;;;-1.89;100.00
35045;BME280;21231;48.394;34.964;2024-03-23T02:55:39;100040.09;;;-1.73;100.00
35045;BME280;21231;48.394;34.964;2024-03-23T02:58:24;100047.75;;;-1.80;100.00
35045;BME280;21231;48.394;34.964;2024-03-23T03:01:09;100042.69;;;-1.89;100.00
35045;BME280;21231;48.394;34.964;2024-03-23T03:03:54;100047.72;;;-1.89;100.00
35045;BME280;21231;48.394;34.964;2024-03-23T03:06:39;100042.34;;;-1.92;100.00
35045;BME280;21231;48.394;34.964;2024-03-23T03:09:25;100049.19;;;-1.91;100.00
35045;BME280;21231;48.394;34.964;2024-03-23T03:12:11;100044.19;;;-1.82;100.00
35045;BME280;21231;48.394;34.964;2024-03-23T03:14:56;100053.72;;;-1.79;100.00
35045;BME280;21231;48.394;34.964;2024-03-23T03:17:41;100054.06;;;-1.92;100.00
35045;BME280;21231;48.394;34.964;2024-03-23T03:20:27;100062.41;;;-1.93;100.00
35045;BME280;21231;48.394;34.964;2024-03-23T03:23:12;100061.53;;;-1.94;100.00
35045;BME280;21231;48.394;34.964;2024-03-23T03:25:57;100043.78;;;-2.03;100.00
35045;BME280;21231;48.394;34.964;2024-03-23T03:28:43;100064.81;;;-2.11;100.00
35045;BME280;21231;48.394;34.964;2024-03-23T03:31:35;100053.75;;;-2.20;100.00
35045;BME280;21231;48.394;34.964;2024-03-23T03:34:20;100062.78;;;-2.06;100.00
35045;BME280;21231;48.394;34.964;2024-03-23T03:37:06;100074.75;;;-1.96;100.00
35045;BME280;21231;48.394;34.964;2024-03-23T03:39:52;100060.00;;;-2.17;100.00
35045;BME280;21231;48.394;34.964;2024-03-23T03:42:36;100071.44;;;-2.20;100.00
35045;BME280;21231;48.394;34.964;2024-03-23T03:45:22;100052.38;;;-2.26;100.00
35045;BME280;21231;48.394;34.964;2024-03-23T03:48:07;100057.22;;;-2.11;100.00
35045;BME280;21231;48.394;34.964;2024-03-23T03:50:53;100051.31;;;-2.12;100.00
35045;BME280;21231;48.394;34.964;2024-03-23T03:53:38;100058.72;;;-1.88;100.00
35045;BME280;21231;48.394;34.964;2024-03-23T03:56:23;100056.31;;;-1.95;100.00
35045;BME280;21231;48.394;34.964;2024-03-23T03:59:08;100062.53;;;-2.01;100.00
35045;BME280;21231;48.394;34.964;2024-03-23T04:01:54;100055.91;;;-1.91;100.00
35045;BME280;21231;48.394;34.964;2024-03-23T04:04:39;100053.66;;;-1.63;100.00
35045;BME280;21231;48.394;34.964;2024-03-23T04:07:24;100061.59;;;-1.51;100.00
35045;BME280;21231;48.394;34.964;2024-03-23T04:10:09;100050.59;;;-1.52;100.00
35045;BME280;21231;48.394;34.964;2024-03-23T04:12:54;100063.78;;;-1.29;100.00
35045;BME280;21231;48.394;34.964;2024-03-23T04:15:39;100072.06;;;-1.39;100.00
35045;BME280;21231;48.394;34.964;2024-03-23T04:18:25;100064.34;;;-1.41;100.00
35045;BME280;21231;48.394;34.964;2024-03-23T04:21:10;100072.75;;;-1.24;100.00
35045;BME280;21231;48.394;34.964;2024-03-23T04:23:55;100072.75;;;-1.15;100.00
35045;BME280;21231;48.394;34.964;2024-03-23T04:26:42;100070.00;;;-0.92;100.00
35045;BME280;21231;48.394;34.964;2024-03-23T04:29:28;100063.78;;;-0.78;100.00
35045;BME280;21231;48.394;34.964;2024-03-23T04:32:13;100068.28;;;-0.66;100.00
35045;BME280;21231;48.394;34.964;2024-03-23T04:34:58;100070.19;;;-0.73;100.00
35045;BME280;21231;48.394;34.964;2024-03-23T04:37:43;100072.88;;;-0.71;100.00
35045;BME280;21231;48.394;34.964;2024-03-23T04:40:28;100071.97;;;-0.80;100.00
35045;BME280;21231;48.394;34.964;2024-03-23T04:43:14;100076.16;;;-0.63;100.00
35045;BME280;21231;48.394;34.964;2024-03-23T04:45:59;100075.59;;;-0.34;100.00
35045;BME280;21231;48.394;34.964;2024-03-23T04:48:44;100084.25;;;-0.14;100.00
35045;BME280;21231;48.394;34.964;2024-03-23T04:51:35;100083.47;;;0.77;100.00
35045;BME280;21231;48.394;34.964;2024-03-23T04:54:26;100085.38;;;1.63;100.00
35045;BME280;21231;48.394;34.964;2024-03-23T04:57:13;100098.25;;;2.43;100.00
35045;BME280;21231;48.394;34.964;2024-03-23T05:00:05;100099.59;;;3.09;100.00
35045;BME280;21231;48.394;34.964;2024-03-23T05:03:01;100098.34;;;3.46;100.00
35045;BME280;21231;48.394;34.964;2024-03-23T05:05:47;100109.38;;;3.98;100.00
35045;BME280;21231;48.394;34.964;2024-03-23T05:08:33;100101.69;;;4.19;100.00
35045;BME280;21231;48.394;34.964;2024-03-23T05:11:18;100110.50;;;4.78;100.00
35045;BME280;21231;48.394;34.964;2024-03-23T05:14:03;100110.56;;;4.90;100.00
35045;BME280;21231;48.394;34.964;2024-03-23T05:16:48;100110.44;;;5.33;100.00
35045;BME280;21231;48.394;34.964;2024-03-23T05:19:33;100118.53;;;5.86;100.00
35045;BME280;21231;48.394;34.964;2024-03-23T05:22:18;100120.22;;;5.97;100.00
35045;BME280;21231;48.394;34.964;2024-03-23T05:25:03;100121.44;;;6.14;100.00
35045;BME280;21231;48.394;34.964;2024-03-23T05:27:58;100112.78;;;6.24;100.00
35045;BME280;21231;48.394;34.964;2024-03-23T05:30:53;100102.88;;;6.90;100.00
35045;BME280;21231;48.394;34.964;2024-03-23T05:33:38;100104.69;;;6.79;100.00
35045;BME280;21231;48.394;34.964;2024-03-23T05:36:24;100104.56;;;7.40;100.00
35045;BME280;21231;48.394;34.964;2024-03-23T05:39:09;100096.59;;;8.02;100.00
35045;BME280;21231;48.394;34.964;2024-03-23T05:41:54;100094.41;;;8.49;100.00
35045;BME280;21231;48.394;34.964;2024-03-23T05:44:39;100095.88;;;8.72;100.00
35045;BME280;21231;48.394;34.964;2024-03-23T05:47:24;100098.28;;;8.42;100.00
35045;BME280;21231;48.394;34.964;2024-03-23T05:50:09;100095.53;;;8.25;100.00
35045;BME280;21231;48.394;34.964;2024-03-23T05:52:57;100094.72;;;8.40;100.00
35045;BME280;21231;48.394;34.964;2024-03-23T05:55:43;100094.47;;;9.06;100.00
35045;BME280;21231;48.394;34.964;2024-03-23T05:58:28;100092.22;;;8.68;100.00
35045;BME280;21231;48.394;34.964;2024-03-23T06:01:13;100098.13;;;9.53;100.00
35045;BME280;21231;48.394;34.964;2024-03-23T06:03:58;100098.28;;;8.84;100.00
35045;BME280;21231;48.394;34.964;2024-03-23T06:06:43;100097.63;;;9.30;100.00
35045;BME280;21231;48.394;34.964;2024-03-23T06:09:28;100085.50;;;8.57;100.00
35045;BME280;21231;48.394;34.964;2024-03-23T06:12:16;100087.31;;;9.15;100.00
35045;BME280;21231;48.394;34.964;2024-03-23T06:15:01;100092.34;;;9.14;100.00
35045;BME280;21231;48.394;34.964;2024-03-23T06:17:46;100098.47;;;10.05;100.00
35045;BME280;21231;48.394;34.964;2024-03-23T06:20:32;100097.94;;;9.65;100.00
35045;BME280;21231;48.394;34.964;2024-03-23T06:23:17;100084.78;;;9.91;100.00
35045;BME280;21231;48.394;34.964;2024-03-23T06:26:05;100091.34;;;10.16;100.00
35045;BME280;21231;48.394;34.964;2024-03-23T06:28:51;100094.94;;;9.87;100.00
35045;BME280;21231;48.394;34.964;2024-03-23T06:31:37;100079.47;;;10.98;100.00
35045;BME280;21231;48.394;34.964;2024-03-23T06:34:22;100080.97;;;10.61;100.00
35045;BME280;21231;48.394;34.964;2024-03-23T06:37:08;100089.44;;;11.08;100.00
35045;BME280;21231;48.394;34.964;2024-03-23T06:39:54;100091.00;;;10.09;100.00
35045;BME280;21231;48.394;34.964;2024-03-23T06:42:39;100086.22;;;10.00;100.00
35045;BME280;21231;48.394;34.964;2024-03-23T06:45:24;100075.59;;;10.41;100.00
35045;BME280;21231;48.394;34.964;2024-03-23T06:48:10;100080.56;;;10.86;100.00
35045;BME280;21231;48.394;34.964;2024-03-23T06:50:58;100081.84;;;10.78;100.00
35045;BME280;21231;48.394;34.964;2024-03-23T06:53:43;100085.66;;;10.68;100.00
35045;BME280;21231;48.394;34.964;2024-03-23T06:56:28;100092.03;;;10.28;100.00
35045;BME280;21231;48.394;34.964;2024-03-23T06:59:13;100086.81;;;10.90;100.00
35045;BME280;21231;48.394;34.964;2024-03-23T07:01:58;100089.38;;;10.26;100.00
35045;BME280;21231;48.394;34.964;2024-03-23T07:04:44;100086.81;;;10.90;100.00
35045;BME280;21231;48.394;34.964;2024-03-23T07:07:29;100085.34;;;10.78;100.00
35045;BME280;21231;48.394;34.964;2024-03-23T07:10:15;100081.22;;;11.67;100.00
35045;BME280;21231;48.394;34.964;2024-03-23T07:13:00;100087.84;;;11.62;100.00
35045;BME280;21231;48.394;34.964;2024-03-23T07:15:51;100084.41;;;11.79;100.00
35045;BME280;21231;48.394;34.964;2024-03-23T07:18:36;100078.75;;;11.87;100.00
35045;BME280;21231;48.394;34.964;2024-03-23T07:21:21;100086.13;;;11.27;100.00
35045;BME280;21231;48.394;34.964;2024-03-23T07:24:07;100095.16;;;11.36;100.00
35045;BME280;21231;48.394;34.964;2024-03-23T07:26:52;100088.31;;;11.71;100.00
35045;BME280;21231;48.394;34.964;2024-03-23T07:29:39;100077.72;;;12.94;100.00
35045;BME280;21231;48.394;34.964;2024-03-23T07:32:24;100082.66;;;12.69;100.00
35045;BME280;21231;48.394;34.964;2024-03-23T07:35:09;100078.06;;;12.26;100.00
35045;BME280;21231;48.394;34.964;2024-03-23T07:37:54;100083.72;;;12.93;100.00
35045;BME280;21231;48.394;34.964;2024-03-23T07:40:39;100072.38;;;13.30;100.00
35045;BME280;21231;48.394;34.964;2024-03-23T07:43:24;100076.50;;;12.47;100.00
35045;BME280;21231;48.394;34.964;2024-03-23T07:46:09;100065.88;;;13.19;100.00
35045;BME280;21231;48.394;34.964;2024-03-23T07:48:56;100069.38;;;12.61;100.00
35045;BME280;21231;48.394;34.964;2024-03-23T07:51:41;100075.59;;;12.85;100.00
35045;BME280;21231;48.394;34.964;2024-03-23T07:54:26;100077.41;;;11.77;100.00
35045;BME280;21231;48.394;34.964;2024-03-23T07:57:12;100070.69;;;12.33;100.00
35045;BME280;21231;48.394;34.964;2024-03-23T07:59:57;100072.41;;;12.16;100.00
35045;BME280;21231;48.394;34.964;2024-03-23T08:02:42;100067.63;;;11.69;100.00
35045;BME280;21231;48.394;34.964;2024-03-23T08:05:27;100067.84;;;11.23;100.00
35045;BME280;21231;48.394;34.964;2024-03-23T08:08:12;100071.25;;;11.22;100.00
35045;BME280;21231;48.394;34.964;2024-03-23T08:10:57;100071.63;;;11.46;100.00
35045;BME280;21231;48.394;34.964;2024-03-23T08:13:45;100062.63;;;10.88;100.00
35045;BME280;21231;48.394;34.964;2024-03-23T08:16:30;100067.72;;;11.54;100.00
35045;BME280;21231;48.394;34.964;2024-03-23T08:19:15;100056.63;;;12.10;100.00
35045;BME280;21231;48.394;34.964;2024-03-23T08:22:01;100052.91;;;12.59;100.00
35045;BME280;21231;48.394;34.964;2024-03-23T08:24:47;100040.38;;;12.13;100.00
35045;BME280;21231;48.394;34.964;2024-03-23T08:27:32;100044.41;;;12.24;100.00
35045;BME280;21231;48.394;34.964;2024-03-23T08:30:17;100052.78;;;12.02;100.00
35045;BME280;21231;48.394;34.964;2024-03-23T08:33:03;100044.03;;;12.34;100.00
35045;BME280;21231;48.394;34.964;2024-03-23T08:35:55;100052.88;;;12.78;100.00
35045;BME280;21231;48.394;34.964;2024-03-23T08:38:42;100046.59;;;12.92;100.00
35045;BME280;21231;48.394;34.964;2024-03-23T08:41:27;100038.63;;;13.70;100.00
35045;BME280;21231;48.394;34.964;2024-03-23T08:44:12;100033.97;;;13.82;100.00
35045;BME280;21231;48.394;34.964;2024-03-23T08:46:58;100028.94;;;12.82;100.00
35045;BME280;21231;48.394;34.964;2024-03-23T08:49:46;100030.22;;;12.72;100.00
35045;BME280;21231;48.394;34.964;2024-03-23T08:52:33;100021.44;;;13.29;100.00
35045;BME280;21231;48.394;34.964;2024-03-23T08:55:18;100019.66;;;14.13;100.00
35045;BME280;21231;48.394;34.964;2024-03-23T08:58:03;100023.28;;;12.15;100.00
35045;BME280;21231;48.394;34.964;2024-03-23T09:00:48;100017.09;;;12.29;100.00
35045;BME280;21231;48.394;34.964;2024-03-23T09:03:35;100014.50;;;13.28;100.00
35045;BME280;21231;48.394;34.964;2024-03-23T09:06:21;100000.75;;;13.50;100.00
35045;BME280;21231;48.394;34.964;2024-03-23T09:09:06;100006.16;;;12.94;100.00
35045;BME280;21231;48.394;34.964;2024-03-23T09:11:51;99994.50;;;13.88;100.00
35045;BME280;21231;48.394;34.964;2024-03-23T09:14:36;100004.72;;;13.21;100.00
35045;BME280;21231;48.394;34.964;2024-03-23T09:17:21;100001.50;;;13.26;100.00
35045;BME280;21231;48.394;34.964;2024-03-23T09:20:07;99991.00;;;13.02;100.00
35045;BME280;21231;48.394;34.964;2024-03-23T09:22:52;99995.47;;;13.06;100.00
35045;BME280;21231;48.394;34.964;2024-03-23T09:25:38;99985.19;;;12.11;100.00
35045;BME280;21231;48.394;34.964;2024-03-23T09:28:25;100002.38;;;11.21;100.00
35045;BME280;21231;48.394;34.964;2024-03-23T09:31:10;99991.41;;;10.90;100.00
35045;BME280;21231;48.394;34.964;2024-03-23T09:33:59;99986.81;;;10.84;100.00
35045;BME280;21231;48.394;34.964;2024-03-23T09:36:43;99986.31;;;10.42;100.00
35045;BME280;21231;48.394;34.964;2024-03-23T09:39:30;99984.78;;;10.45;100.00
35045;BME280;21231;48.394;34.964;2024-03-23T09:42:17;99988.50;;;10.67;100.00
35045;BME280;21231;48.394;34.964;2024-03-23T09:45:02;99973.19;;;10.37;100.00
35045;BME280;21231;48.394;34.964;2024-03-23T09:47:48;99972.31;;;10.36;100.00
35045;BME280;21231;48.394;34.964;2024-03-23T09:50:33;99966.06;;;10.16;100.00
35045;BME280;21231;48.394;34.964;2024-03-23T09:53:18;99968.66;;;10.33;100.00
35045;BME280;21231;48.394;34.964;2024-03-23T09:56:03;99969.97;;;10.41;100.00
35045;BME280;21231;48.394;34.964;2024-03-23T09:58:49;99960.31;;;10.53;100.00
35045;BME280;21231;48.394;34.964;2024-03-23T10:01:34;99933.69;;;10.05;100.00
35045;BME280;21231;48.394;34.964;2024-03-23T10:04:39;99958.81;;;10.25;100.00
35045;BME280;21231;48.394;34.964;2024-03-23T10:07:25;99957.69;;;10.20;100.00
35045;BME280;21231;48.394;34.964;2024-03-23T10:10:11;99942.91;;;10.49;100.00
35045;BME280;21231;48.394;34.964;2024-03-23T10:12:56;99947.75;;;10.43;100.00
35045;BME280;21231;48.394;34.964;2024-03-23T10:15:42;99949.63;;;10.62;100.00
35045;BME280;21231;48.394;34.964;2024-03-23T10:18:27;99936.47;;;10.58;100.00
35045;BME280;21231;48.394;34.964;2024-03-23T10:21:14;99942.44;;;10.73;100.00
35045;BME280;21231;48.394;34.964;2024-03-23T10:24:07;99940.50;;;10.36;100.00
35045;BME280;21231;48.394;34.964;2024-03-23T10:26:56;99933.16;;;10.27;100.00
35045;BME280;21231;48.394;34.964;2024-03-23T10:29:41;99929.31;;;10.52;100.00
35045;BME280;21231;48.394;34.964;2024-03-23T10:32:26;99913.28;;;10.58;100.00
35045;BME280;21231;48.394;34.964;2024-03-23T10:38:07;99898.47;;;10.37;100.00
35045;BME280;21231;48.394;34.964;2024-03-23T10:40:53;99917.88;;;10.47;100.00
35045;BME280;21231;48.394;34.964;2024-03-23T10:43:39;99919.81;;;10.51;100.00
35045;BME280;21231;48.394;34.964;2024-03-23T10:46:24;99915.09;;;10.42;100.00
35045;BME280;21231;48.394;34.964;2024-03-23T10:49:10;99908.13;;;10.41;100.00
35045;BME280;21231;48.394;34.964;2024-03-23T10:51:56;99907.19;;;10.56;100.00
35045;BME280;21231;48.394;34.964;2024-03-23T10:54:42;99902.41;;;10.80;100.00
35045;BME280;21231;48.394;34.964;2024-03-23T10:57:34;99902.19;;;10.94;100.00
35045;BME280;21231;48.394;34.964;2024-03-23T11:00:22;99889.25;;;11.10;100.00
35045;BME280;21231;48.394;34.964;2024-03-23T11:06:38;99887.72;;;10.96;100.00
35045;BME280;21231;48.394;34.964;2024-03-23T11:15:14;99884.84;;;11.26;100.00
35045;BME280;21231;48.394;34.964;2024-03-23T11:18:07;99880.94;;;11.34;100.00
35045;BME280;21231;48.394;34.964;2024-03-23T11:20:57;99885.72;;;11.26;100.00
35045;BME280;21231;48.394;34.964;2024-03-23T11:23:42;99890.69;;;11.22;100.00
35045;BME280;21231;48.394;34.964;2024-03-23T11:26:27;99887.63;;;11.12;100.00
35045;BME280;21231;48.394;34.964;2024-03-23T11:29:14;99884.13;;;11.28;100.00
35045;BME280;21231;48.394;34.964;2024-03-23T11:31:59;99880.78;;;11.13;100.00
35045;BME280;21231;48.394;34.964;2024-03-23T11:34:46;99879.28;;;11.00;100.00
35045;BME280;21231;48.394;34.964;2024-03-23T11:37:31;99878.06;;;11.10;100.00
35045;BME280;21231;48.394;34.964;2024-03-23T11:40:18;99868.84;;;10.97;100.00
35045;BME280;21231;48.394;34.964;2024-03-23T11:43:14;99868.34;;;11.22;100.00
35045;BME280;21231;48.394;34.964;2024-03-23T11:45:59;99866.94;;;11.47;100.00
35045;BME280;21231;48.394;34.964;2024-03-23T11:48:51;99860.44;;;11.55;100.00
35045;BME280;21231;48.394;34.964;2024-03-23T11:51:39;99862.59;;;11.46;100.00
35045;BME280;21231;48.394;34.964;2024-03-23T11:54:26;99851.06;;;11.57;100.00
35045;BME280;21231;48.394;34.964;2024-03-23T11:57:12;99857.78;;;11.36;100.00
35045;BME280;21231;48.394;34.964;2024-03-23T11:59:57;99852.19;;;11.26;100.00
35045;BME280;21231;48.394;34.964;2024-03-23T12:02:42;99848.69;;;11.24;100.00
35045;BME280;21231;48.394;34.964;2024-03-23T12:05:28;99847.91;;;11.45;100.00
35045;BME280;21231;48.394;34.964;2024-03-23T12:11:11;99841.56;;;11.56;100.00
35045;BME280;21231;48.394;34.964;2024-03-23T12:13:59;99842.38;;;11.55;100.00
35045;BME280;21231;48.394;34.964;2024-03-23T12:16:45;99825.59;;;11.27;100.00
35045;BME280;21231;48.394;34.964;2024-03-23T12:19:30;99834.22;;;11.10;100.00
35045;BME280;21231;48.394;34.964;2024-03-23T12:22:15;99837.31;;;11.02;100.00
35045;BME280;21231;48.394;34.964;2024-03-23T12:25:00;99835.41;;;10.98;100.00
35045;BME280;21231;48.394;34.964;2024-03-23T12:27:45;99825.53;;;11.08;100.00
35045;BME280;21231;48.394;34.964;2024-03-23T12:30:30;99826.63;;;11.31;100.00
35045;BME280;21231;48.394;34.964;2024-03-23T12:33:15;99816.66;;;11.39;100.00
35045;BME280;21231;48.394;34.964;2024-03-23T12:36:00;99823.41;;;11.17;100.00
35045;BME280;21231;48.394;34.964;2024-03-23T12:38:45;99803.16;;;11.07;100.00
35045;BME280;21231;48.394;34.964;2024-03-23T12:41:30;99814.31;;;11.07;100.00
35045;BME280;21231;48.394;34.964;2024-03-23T12:44:15;99815.34;;;11.47;100.00
35045;BME280;21231;48.394;34.964;2024-03-23T12:47:00;99820.69;;;11.52;100.00
35045;BME280;21231;48.394;34.964;2024-03-23T12:49:47;99821.09;;;11.41;100.00
35045;BME280;21231;48.394;34.964;2024-03-23T12:52:34;99826.84;;;11.36;100.00
35045;BME280;21231;48.394;34.964;2024-03-23T12:55:19;99814.91;;;11.20;100.00
35045;BME280;21231;48.394;34.964;2024-03-23T12:58:05;99816.91;;;11.25;100.00
35045;BME280;21231;48.394;34.964;2024-03-23T13:00:50;99809.66;;;11.54;100.00
35045;BME280;21231;48.394;34.964;2024-03-23T13:03:35;99818.34;;;11.56;100.00
35045;BME280;21231;48.394;34.964;2024-03-23T13:06:20;99815.59;;;11.53;100.00
35045;BME280;21231;48.394;34.964;2024-03-23T13:09:06;99797.50;;;11.34;100.00
35045;BME280;21231;48.394;34.964;2024-03-23T13:11:51;99815.34;;;11.29;100.00
35045;BME280;21231;48.394;34.964;2024-03-23T13:14:36;99790.38;;;11.28;100.00
35045;BME280;21231;48.394;34.964;2024-03-23T13:17:21;99791.31;;;11.30;100.00
35045;BME280;21231;48.394;34.964;2024-03-23T13:20:06;99783.81;;;11.16;100.00
35045;BME280;21231;48.394;34.964;2024-03-23T13:22:58;99790.13;;;11.23;100.00
35045;BME280;21231;48.394;34.964;2024-03-23T13:25:53;99784.47;;;11.30;100.00
35045;BME280;21231;48.394;34.964;2024-03-23T13:28:39;99789.63;;;11.30;100.00
35045;BME280;21231;48.394;34.964;2024-03-23T13:31:24;99784.13;;;11.23;100.00
35045;BME280;21231;48.394;34.964;2024-03-23T13:34:09;99785.22;;;11.28;100.00
35045;BME280;21231;48.394;34.964;2024-03-23T13:36:54;99776.00;;;11.15;100.00
35045;BME280;21231;48.394;34.964;2024-03-23T13:39:41;99776.88;;;11.34;100.00
35045;BME280;21231;48.394;34.964;2024-03-23T13:42:26;99770.56;;;11.47;100.00
35045;BME280;21231;48.394;34.964;2024-03-23T13:45:12;99764.66;;;11.29;100.00
35045;BME280;21231;48.394;34.964;2024-03-23T13:48:03;99757.28;;;11.19;100.00
35045;BME280;21231;48.394;34.964;2024-03-23T13:51:00;99762.56;;;11.02;100.00
35045;BME280;21231;48.394;34.964;2024-03-23T13:53:45;99762.75;;;11.25;100.00
35045;BME280;21231;48.394;34.964;2024-03-23T13:56:30;99760.59;;;11.16;100.00
35045;BME280;21231;48.394;34.964;2024-03-23T13:59:16;99749.28;;;10.95;100.00
35045;BME280;21231;48.394;34.964;2024-03-23T14:02:02;99745.91;;;10.96;100.00
35045;BME280;21231;48.394;34.964;2024-03-23T14:04:47;99749.56;;;10.83;100.00
35045;BME280;21231;48.394;34.964;2024-03-23T14:07:33;99752.88;;;10.80;100.00
35045;BME280;21231;48.394;34.964;2024-03-23T14:10:18;99753.16;;;10.86;100.00
35045;BME280;21231;48.394;34.964;2024-03-23T14:13:03;99747.16;;;10.86;100.00
35045;BME280;21231;48.394;34.964;2024-03-23T14:15:53;99740.09;;;10.82;100.00
35045;BME280;21231;48.394;34.964;2024-03-23T14:18:39;99738.25;;;10.79;100.00
35045;BME280;21231;48.394;34.964;2024-03-23T14:21:24;99741.69;;;10.79;100.00
35045;BME280;21231;48.394;34.964;2024-03-23T14:24:09;99735.94;;;10.67;100.00
35045;BME280;21231;48.394;34.964;2024-03-23T14:26:54;99733.56;;;10.53;100.00
35045;BME280;21231;48.394;34.964;2024-03-23T14:29:39;99726.06;;;10.40;100.00
35045;BME280;21231;48.394;34.964;2024-03-23T14:32:25;99726.72;;;10.36;100.00
35045;BME280;21231;48.394;34.964;2024-03-23T14:35:10;99723.81;;;10.30;100.00
35045;BME280;21231;48.394;34.964;2024-03-23T14:37:55;99713.06;;;10.20;100.00
35045;BME280;21231;48.394;34.964;2024-03-23T14:40:40;99729.53;;;10.24;100.00
35045;BME280;21231;48.394;34.964;2024-03-23T14:43:25;99722.16;;;10.13;100.00
35045;BME280;21231;48.394;34.964;2024-03-23T14:46:13;99726.72;;;10.19;100.00
35045;BME280;21231;48.394;34.964;2024-03-23T14:49:00;99721.63;;;10.21;100.00
35045;BME280;21231;48.394;34.964;2024-03-23T14:51:45;99725.13;;;10.21;100.00
35045;BME280;21231;48.394;34.964;2024-03-23T14:54:31;99723.28;;;10.02;100.00
35045;BME280;21231;48.394;34.964;2024-03-23T14:57:16;99739.78;;;10.06;100.00
35045;BME280;21231;48.394;34.964;2024-03-23T15:00:06;99731.50;;;9.95;100.00
35045;BME280;21231;48.394;34.964;2024-03-23T15:02:52;99728.38;;;9.84;100.00
35045;BME280;21231;48.394;34.964;2024-03-23T15:05:37;99732.88;;;9.71;100.00
35045;BME280;21231;48.394;34.964;2024-03-23T15:08:23;99733.59;;;9.69;100.00
35045;BME280;21231;48.394;34.964;2024-03-23T15:11:08;99729.84;;;9.62;100.00
35045;BME280;21231;48.394;34.964;2024-03-23T15:13:54;99732.22;;;9.59;100.00
35045;BME280;21231;48.394;34.964;2024-03-23T15:16:40;99735.13;;;9.48;100.00
35045;BME280;21231;48.394;34.964;2024-03-23T15:19:27;99737.41;;;9.42;100.00